Flight Track Log - Related Links

Times and Time Zones

All times are in EDT time to prevent confusion due to time zone crossing. See the AWE1940 flight status page for this flight to view local times or setup timezone preferences in your user account.

Time Position Orientation Groundspeed Altitude Reporting Facility
EDT Latitude Longitude Course Direction KTS MPH feet Rate Location/Type
Wed 10:34:40 PM 35.1928 -80.9356 72° East 167 192 1,700  Level Atlanta Center
Wed 10:35:41 PM 35.1444 -80.9222 167° South 195 224 3,600 1,875 Climbing Atlanta Center
Wed 10:36:48 PM 35.0950 -80.8556 132° Southeast 265 305 5,700 2,297 Climbing Atlanta Center
Wed 10:37:00 PM 35.1112 -80.6259 29° Northeast  Level FlightAware Approximate
Wed 10:37:49 PM 35.1239 -80.7731 67° East 296 341 8,500  Level Atlanta Center
Wed 10:38:00 PM 35.2075 -80.5613 30° Northeast  Level FlightAware Approximate
Wed 10:38:12 PM 35.1339 -80.7472 65° Northeast 288 331 9,300  Level Atlanta Center
Wed 10:38:50 PM 35.1656 -80.6878 57° Northeast 309 356 11,100 2,100 Climbing Atlanta Center
Wed 10:39:00 PM 35.3024 -80.4935 30° Northeast  Level FlightAware Approximate
Wed 10:39:12 PM 35.1792 -80.6567 62° Northeast 335 386 11,400  Level Atlanta Center
Wed 10:40:00 PM 35.3528 -80.3932 72° East  Level FlightAware Approximate
Wed 10:40:12 PM 35.2306 -80.5528 59° Northeast 371 427 14,000  Level Atlanta Center
Wed 10:41:12 PM 35.2858 -80.4436 58° Northeast 371 427 14,000 1,546 Level Atlanta Center
Wed 10:43:26 PM 35.4056 -80.2044 58° Northeast 383 441 19,000 2,394 Climbing Washington Center
Wed 10:44:25 PM 35.4481 -80.0744 68° East 404 465 21,700 2,521 Climbing Washington Center
Wed 10:45:25 PM 35.4892 -79.9286 71° East 404 465 24,000 1,884 Climbing Washington Center
Wed 10:46:26 PM 35.5256 -79.7825 73° East 424 488 25,500 1,525 Climbing Washington Center
Wed 10:47:27 PM 35.5642 -79.6314 73° East 437 503 27,100 2,017 Climbing Washington Center
Wed 10:48:25 PM 35.6028 -79.4775 73° East 462 532 29,500 2,237 Climbing Washington Center
Wed 10:49:25 PM 35.6533 -79.3317 67° East 462 532 31,500 1,736 Climbing Washington Center
Wed 10:50:26 PM 35.7117 -79.1939 62° Northeast 457 526 33,000 1,488 Climbing Washington Center
Wed 10:51:26 PM 35.7681 -79.0506 64° Northeast 457 526 34,500 1,008 Climbing Washington Center
Wed 10:52:25 PM 35.8264 -78.9122 62° Northeast 457 526 35,000 250 Climbing Washington Center
Wed 10:53:26 PM 35.8867 -78.7658 63° Northeast 462 532 35,000  Level Washington Center
Wed 10:54:27 PM 35.9528 -78.6300 59° Northeast 462 532 35,000  Level Washington Center
Wed 10:55:25 PM 36.0186 -78.4914 60° Northeast 462 532 35,000  Level Washington Center
Wed 10:56:25 PM 36.0847 -78.3525 59° Northeast 468 539 35,000  Level Washington Center
Wed 10:57:25 PM 36.1525 -78.2133 59° Northeast 468 539 35,000  Level Washington Center
Wed 10:58:25 PM 36.2200 -78.0739 59° Northeast 468 539 35,000  Level Washington Center
Wed 10:59:25 PM 36.2856 -77.9342 60° Northeast 463 533 35,000  Level Washington Center
Wed 11:00:25 PM 36.3506 -77.7969 60° Northeast 463 533 35,000  Level Washington Center
Wed 11:01:26 PM 36.4158 -77.6594 59° Northeast 463 533 35,000  Level Washington Center
Wed 11:02:27 PM 36.4764 -77.5242 61° Northeast 455 524 35,000  Level Washington Center
Wed 11:03:25 PM 36.5411 -77.3886 59° Northeast 455 524 35,000  Level Washington Center
Wed 11:04:27 PM 36.6058 -77.2478 60° Northeast 455 524 35,000  Level Washington Center
Wed 11:05:26 PM 36.6703 -77.1069 60° Northeast 455 524 35,000  Level Washington Center
Wed 11:06:27 PM 36.7447 -76.9839 53° Northeast 455 524 35,000  Level Washington Center
Wed 11:07:25 PM 36.8481 -76.8897 36° Northeast 447 514 35,000  Level Washington Center
Wed 11:08:25 PM 36.9492 -76.7978 36° Northeast 441 507 35,000  Level Washington Center
Wed 11:09:25 PM 37.0542 -76.7031 36° Northeast 453 521 35,000  Level Washington Center
Wed 11:10:26 PM 37.1572 -76.6081 36° Northeast 458 527 35,000  Level Washington Center
Wed 11:11:25 PM 37.2497 -76.5233 36° Northeast 458 527 35,000  Level Washington Center
Wed 11:12:27 PM 37.3547 -76.4306 35° Northeast 458 527 35,000  Level Washington Center
Wed 11:13:25 PM 37.4556 -76.3375 36° Northeast 458 527 35,000  Level Washington Center
Wed 11:14:25 PM 37.5583 -76.2442 36° Northeast 458 527 35,000  Level Washington Center
Wed 11:15:26 PM 37.6692 -76.1400 37° Northeast 458 527 35,000  Level Washington Center
Wed 11:16:27 PM 37.7614 -76.0619 34° Northeast 453 521 35,000  Level Washington Center
Wed 11:17:27 PM 37.8619 -75.9600 39° Northeast 453 521 35,000  Level Washington Center
Wed 11:18:25 PM 37.9622 -75.8658 37° Northeast 453 521 35,000  Level Washington Center
Wed 11:19:25 PM 38.0667 -75.7711 36° Northeast 453 521 35,000  Level Washington Center
Wed 11:20:26 PM 38.1669 -75.6764 37° Northeast 453 521 35,000  Level Washington Center
Wed 11:21:24 PM 38.2775 -75.5678 38° Northeast 458 527 35,000  Level Washington Center
Wed 11:22:25 PM 38.3878 -75.4911 29° Northeast 452 520 35,000  Level Washington Center
Wed 11:23:25 PM 38.5067 -75.4483 16° North 435 501 35,000 -50 Level Washington Center
Wed 11:24:26 PM 38.6233 -75.3978 19° North 440 506 34,900  Descending Washington Center
Wed 11:25:25 PM 38.7400 -75.3494 18° North 434 499 35,000 50 Climbing Washington Center
Wed 11:26:25 PM 38.8544 -75.3011 18° North 434 499 35,000 -50 Level Washington Center
Wed 11:27:24 PM 38.9606 -75.2233 30° Northeast 434 499 34,900  Descending Washington Center
Wed 11:28:25 PM 39.0667 -75.1478 29° Northeast 428 493 35,000 49 Climbing Washington Center
Wed 11:29:27 PM 39.1728 -75.0694 30° Northeast 428 493 35,000 -50 Level Washington Center
Wed 11:30:25 PM 39.2764 -74.9936 30° Northeast 434 499 34,900 -50 Descending Washington Center
Wed 11:31:26 PM 39.3803 -74.9175 30° Northeast 434 499 34,900 50 Level Washington Center
Wed 11:32:25 PM 39.4861 -74.8414 29° Northeast 434 499 35,000 35 Climbing Washington Center
Wed 11:34:16 PM 39.6792 -74.7008 29° Northeast 422 486 35,000  Level New York Center
Wed 11:35:17 PM 39.7731 -74.6306 30° Northeast 429 494 35,000  Level New York Center
Wed 11:36:15 PM 39.8906 -74.5450 29° Northeast 435 501 35,000  Level New York Center
Wed 11:37:16 PM 39.9889 -74.4717 30° Northeast 435 501 35,000 -50 Level New York Center
Wed 11:38:16 PM 40.0972 -74.4017 26° Northeast 435 501 34,900  Descending New York Center
Wed 11:39:16 PM 40.2128 -74.3778 North 412 474 35,000 37 Climbing New York Center
Wed 11:40:59 PM 40.4233 -74.3319 North 418 481 35,000  Level Boston Center
Wed 11:41:59 PM 40.5364 -74.3078 North 418 481 35,000  Level Boston Center
Wed 11:42:59 PM 40.6536 -74.2783 11° North 418 481 35,000  Level Boston Center
Wed 11:43:59 PM 40.7622 -74.2594 North 424 488 35,000  Level Boston Center
Wed 11:44:59 PM 40.8794 -74.2353 North 429 494 35,000 -450 Level Boston Center
Wed 11:45:59 PM 40.9964 -74.2056 11° North 429 494 34,100 -1,250 Descending Boston Center
Wed 11:46:59 PM 41.1156 -74.1814 North 429 494 32,500 -2,600 Descending Boston Center
Wed 11:47:59 PM 41.2350 -74.1542 10° North 429 494 28,900 -3,200 Descending Boston Center
Wed 11:48:59 PM 41.3564 -74.1214 11° North 429 494 26,100 -1,450 Descending Boston Center
Wed 11:49:59 PM 41.4753 -74.0969 North 429 494 26,000 -1,800 Descending Boston Center
Wed 11:50:59 PM 41.5986 -74.0725 North 436 502 22,500 -3,050 Descending Boston Center
Wed 11:51:59 PM 41.7158 -74.0447 10° North 431 496 19,900 -2,550 Descending Boston Center
Wed 11:52:59 PM 41.8308 -74.0169 10° North 403 464 17,400 -2,604 Descending Boston Center
Wed 11:53:45 PM 41.9081 -74.0022 North 386 444 15,300 -2,655 Descending Boston Center
Wed 11:54:52 PM 42.0253 -73.9744 10° North 372 428 12,400 -2,031 Descending Boston Center
Wed 11:55:52 PM 42.1236 -73.9517 10° North 358 412 11,000 -1,276 Descending Boston Center
Wed 11:56:59 PM 42.2178 -73.9231 13° North 318 366 9,700 -1,388 Descending Boston Center
Wed 11:57:53 PM 42.2889 -73.9078 North 289 333 8,200 -1,513 Descending Boston Center
Wed 11:58:54 PM 42.3725 -73.8817 13° North 287 330 6,800 -1,574 Descending Boston Center
Wed 11:59:55 PM 42.4478 -73.8639 10° North 267 307 5,000 -1,736 Descending Boston Center
Thu 12:00:55 AM 42.5231 -73.8403 13° North 273 314 3,300 -992 Descending Boston Center
Thu 12:01:56 AM 42.5942 -73.8219 11° North 271 312 3,000 -639 Descending Boston Center
Thu 12:02:57 AM 42.6550 -73.8008 14° North 220 253 2,000 -984 Descending Boston Center

Login

Don't have an account? Register now (free) for customized features, flight alerts, and more!